Terminal Aerodrome Forecast
Issued by NWS Mt. Holly, NJ

Home | Current Version | Previous Version | Text Only | Print | Product List | Glossary On
Versions: 1 2 3 4 5 6 7 8 9 10 11 12 13 14 15 16 17 18 19 20 21 22 23 24 25 26 27 28 29
000
FTUS41 KPHI 010225 AAB
TAFPHL
TAF AMD
KPHL 010225Z 0102/0206 13005KT P6SM VCSH BKN045 OVC120
      TEMPO 0102/0105 4SM TSRA BR BKN045CB
     FM010500 19005KT P6SM SHRA BKN045 OVC100
      TEMPO 0105/0107 3SM TSRA BR BKN045CB
     FM011000 23005KT 6SM BR BKN200
     FM011200 24006KT P6SM SCT050
     FM011500 25011G19KT P6SM SCT050
      TEMPO 0117/0120 BKN050
     FM020000 27009KT P6SM FEW060=

USA.gov is the U.S. government's official web portal to all federal, state and local government web resources and services.